Larimore, North Dakota
Current Conditions -  °F | °C
As of 6:34 AM on Tuesday 27 Jan 2015 (Local Time) from KRDR Reporting Station
Unknown Precip Unknown Precip  
Wind Chill: 18°   Ceiling: 300
Heat Index: 25°   Visibility: 7mi
Dew Point: 23°   Wind: 6mph
Humidity: 93%   Direction: 170°S
Pressure: 30.04"   Gusts: NA
Location:  47.91°N, 97.63°W
Report Text: KRDR 271234Z AUTO 17005KT 7SM R17/5500FT UP OVC003 M04/M05 A3004 RMK AO2
Loading
Personal Weather Stations






























Interactive Weather Map New forecast layout! Learn more

10-Day Weather Forecast

Advertisements
Track Severe Weather on mobile